BRU1311 ULLI-UMMS
Flight info
| Callsign | BRU1311 |
|---|---|
| Flight time | 1h 9m |
| Altitude | 34000 |
| Route | RUMOL1C RUMOL N171 LUMIT M984 LEGSI/K0826F330 N743 DAHRU/K0787F280 T398 PENAL PENAL2E |
| Aircraft | B738/M-SDE2E3FGHIRWXY/LB1 |
Departure
| Time | 2026-05-04 11:08 |
|---|---|
| Airport | Pulkovo Airport (ULLI) |
Arrival
| Time | 2026-05-04 12:18 |
|---|---|
| Airport | Minsk National Airport (UMMS) |
| Time | Latitude | Longitude | Altitude | Speed | Heading |
|---|---|---|---|---|---|
| 2026-05-04 10:34 | 59.79747 | 30.26602 | 88 ft | 0 kts | 105° |
| 2026-05-04 10:57 | 59.79749 | 30.26587 | 89 ft | 0 kts | 105° |
| 2026-05-04 10:57 | 59.79752 | 30.26562 | 89 ft | 2 kts | 90° |
| 2026-05-04 10:57 | 59.79750 | 30.26534 | 89 ft | 2 kts | 73° |
| 2026-05-04 10:58 | 59.79743 | 30.26507 | 89 ft | 2 kts | 53° |
| 2026-05-04 10:58 | 59.79733 | 30.26486 | 89 ft | 2 kts | 36° |
| 2026-05-04 10:58 | 59.79721 | 30.26473 | 89 ft | 0 kts | 19° |
| 2026-05-04 10:58 | 59.79715 | 30.26470 | 89 ft | 1 kts | 15° |
| 2026-05-04 10:59 | 59.79714 | 30.26469 | 89 ft | 0 kts | 15° |
| 2026-05-04 11:01 | 59.79817 | 30.26530 | 89 ft | 11 kts | 18° |
| 2026-05-04 11:02 | 59.79909 | 30.26585 | 88 ft | 16 kts | 16° |
| 2026-05-04 11:02 | 59.80025 | 30.26654 | 88 ft | 18 kts | 16° |
| 2026-05-04 11:05 | 59.80708 | 30.24765 | 81 ft | 17 kts | 286° |
| 2026-05-04 11:06 | 59.80766 | 30.24610 | 79 ft | 13 kts | 342° |
| 2026-05-04 11:06 | 59.80849 | 30.24565 | 79 ft | 11 kts | 345° |
| 2026-05-04 11:06 | 59.80927 | 30.24557 | 77 ft | 11 kts | 18° |
| 2026-05-04 11:06 | 59.80955 | 30.24670 | 77 ft | 9 kts | 102° |
| 2026-05-04 11:08 | 59.79694 | 30.33755 | 1342 ft | 179 kts | 109° |
| 2026-05-04 11:10 | 59.74757 | 30.45688 | 4079 ft | 213 kts | 197° |
| 2026-05-04 11:12 | 59.62973 | 30.41053 | 7975 ft | 263 kts | 196° |
| 2026-05-04 11:12 | 59.61186 | 30.40370 | 8632 ft | 265 kts | 196° |
| 2026-05-04 11:12 | 59.59378 | 30.39684 | 9262 ft | 267 kts | 197° |
| 2026-05-04 11:12 | 59.57583 | 30.39001 | 9888 ft | 269 kts | 197° |
| 2026-05-04 11:13 | 59.55698 | 30.38280 | 10246 ft | 283 kts | 197° |
| 2026-05-04 11:13 | 59.53722 | 30.37523 | 10585 ft | 296 kts | 197° |
| 2026-05-04 11:13 | 59.51687 | 30.36742 | 10861 ft | 311 kts | 197° |
| 2026-05-04 11:13 | 59.49512 | 30.35905 | 11118 ft | 326 kts | 197° |
| 2026-05-04 11:14 | 59.47247 | 30.35033 | 11445 ft | 338 kts | 196° |
| 2026-05-04 11:14 | 59.44933 | 30.34151 | 12109 ft | 341 kts | 196° |
| 2026-05-04 11:14 | 59.42623 | 30.33275 | 12733 ft | 344 kts | 196° |
| 2026-05-04 11:16 | 59.25618 | 30.26861 | 16971 ft | 371 kts | 196° |
| 2026-05-04 11:16 | 59.23056 | 30.25888 | 17534 ft | 374 kts | 196° |
| 2026-05-04 11:16 | 59.20543 | 30.24943 | 18093 ft | 377 kts | 197° |
| 2026-05-04 11:17 | 59.17957 | 30.23968 | 18661 ft | 380 kts | 196° |
| 2026-05-04 11:17 | 59.15377 | 30.22998 | 19168 ft | 384 kts | 196° |
| 2026-05-04 11:19 | 58.96624 | 30.16024 | 22805 ft | 403 kts | 195° |
| 2026-05-04 11:19 | 58.93877 | 30.15014 | 23257 ft | 406 kts | 195° |
| 2026-05-04 11:19 | 58.91120 | 30.14000 | 23726 ft | 409 kts | 195° |
| 2026-05-04 11:19 | 58.88314 | 30.12970 | 24251 ft | 410 kts | 196° |
| 2026-05-04 11:20 | 58.85516 | 30.11945 | 24696 ft | 412 kts | 196° |
| 2026-05-04 11:20 | 58.82719 | 30.10915 | 25125 ft | 415 kts | 195° |
| 2026-05-04 11:20 | 58.79872 | 30.09863 | 25541 ft | 418 kts | 196° |
| 2026-05-04 11:20 | 58.77036 | 30.08824 | 25929 ft | 421 kts | 195° |
| 2026-05-04 11:22 | 58.56549 | 30.01395 | 28620 ft | 438 kts | 196° |
| 2026-05-04 11:22 | 58.53543 | 30.00308 | 28938 ft | 441 kts | 195° |
| 2026-05-04 11:23 | 58.50532 | 29.99221 | 29321 ft | 442 kts | 195° |
| 2026-05-04 11:23 | 58.47539 | 29.98146 | 29793 ft | 441 kts | 195° |
| 2026-05-04 11:24 | 58.29976 | 29.91895 | 32650 ft | 428 kts | 195° |
| 2026-05-04 11:25 | 58.27054 | 29.90852 | 32923 ft | 429 kts | 196° |
| 2026-05-04 11:25 | 58.24106 | 29.89801 | 33165 ft | 430 kts | 196° |
| 2026-05-04 11:25 | 58.21188 | 29.88762 | 33326 ft | 431 kts | 196° |
| 2026-05-04 11:26 | 58.15326 | 29.86690 | 33653 ft | 427 kts | 196° |
| 2026-05-04 11:27 | 57.94897 | 29.79531 | 33753 ft | 427 kts | 195° |
| 2026-05-04 11:28 | 57.89059 | 29.77513 | 33752 ft | 427 kts | 195° |
| 2026-05-04 11:28 | 57.83246 | 29.75501 | 33753 ft | 427 kts | 195° |
| 2026-05-04 11:29 | 57.77412 | 29.73479 | 33756 ft | 428 kts | 195° |
| 2026-05-04 11:29 | 57.71572 | 29.71455 | 33760 ft | 428 kts | 195° |
| 2026-05-04 11:33 | 57.30716 | 29.57568 | 33779 ft | 429 kts | 195° |
| 2026-05-04 11:33 | 57.24833 | 29.55600 | 33781 ft | 430 kts | 195° |
| 2026-05-04 11:34 | 57.18995 | 29.53651 | 33778 ft | 429 kts | 195° |
| 2026-05-04 11:34 | 57.13129 | 29.51704 | 33779 ft | 430 kts | 195° |
| 2026-05-04 11:35 | 57.07295 | 29.49773 | 33783 ft | 429 kts | 195° |
| 2026-05-04 11:35 | 57.01442 | 29.47837 | 33791 ft | 429 kts | 195° |
| 2026-05-04 11:36 | 56.95573 | 29.45897 | 33803 ft | 431 kts | 195° |
| 2026-05-04 11:36 | 56.89692 | 29.43951 | 33802 ft | 430 kts | 194° |
| 2026-05-04 11:37 | 56.83813 | 29.42011 | 33810 ft | 431 kts | 195° |
| 2026-05-04 11:37 | 56.77942 | 29.40093 | 33810 ft | 431 kts | 195° |
| 2026-05-04 11:38 | 56.72043 | 29.38174 | 33816 ft | 431 kts | 194° |
| 2026-05-04 11:38 | 56.66146 | 29.36263 | 33817 ft | 432 kts | 194° |
| 2026-05-04 11:39 | 56.60257 | 29.34351 | 33816 ft | 433 kts | 194° |
| 2026-05-04 11:41 | 56.39588 | 29.27707 | 33820 ft | 433 kts | 194° |
| 2026-05-04 11:41 | 56.33641 | 29.25801 | 33816 ft | 433 kts | 194° |
| 2026-05-04 11:42 | 56.27787 | 29.23931 | 33826 ft | 429 kts | 194° |
| 2026-05-04 11:42 | 56.21877 | 29.22048 | 33829 ft | 436 kts | 194° |
| 2026-05-04 11:43 | 56.15960 | 29.20191 | 33836 ft | 433 kts | 194° |
| 2026-05-04 11:43 | 56.10026 | 29.18326 | 33842 ft | 434 kts | 193° |
| 2026-05-04 11:44 | 56.04107 | 29.16463 | 33851 ft | 434 kts | 193° |
| 2026-05-04 11:44 | 55.98170 | 29.14602 | 33856 ft | 433 kts | 193° |
| 2026-05-04 11:45 | 55.92243 | 29.12755 | 33862 ft | 436 kts | 193° |
| 2026-05-04 11:45 | 55.86312 | 29.10912 | 33864 ft | 435 kts | 193° |
| 2026-05-04 11:46 | 55.80352 | 29.09061 | 33868 ft | 436 kts | 193° |
| 2026-05-04 11:46 | 55.74372 | 29.07213 | 33865 ft | 436 kts | 193° |
| 2026-05-04 11:47 | 55.68431 | 29.05383 | 33866 ft | 434 kts | 193° |
| 2026-05-04 11:47 | 55.62498 | 29.03557 | 33867 ft | 435 kts | 193° |
| 2026-05-04 11:48 | 55.56566 | 29.01735 | 33866 ft | 435 kts | 193° |
| 2026-05-04 11:48 | 55.50594 | 28.99910 | 33869 ft | 436 kts | 193° |
| 2026-05-04 11:49 | 55.44656 | 28.98097 | 33866 ft | 436 kts | 193° |
| 2026-05-04 11:49 | 55.38710 | 28.96287 | 33867 ft | 437 kts | 193° |
| 2026-05-04 11:50 | 55.32721 | 28.94453 | 33642 ft | 437 kts | 193° |
| 2026-05-04 11:50 | 55.29741 | 28.93548 | 33368 ft | 434 kts | 193° |
| 2026-05-04 11:50 | 55.26773 | 28.92654 | 33096 ft | 432 kts | 193° |
| 2026-05-04 11:50 | 55.23846 | 28.91904 | 32886 ft | 431 kts | 190° |
| 2026-05-04 11:51 | 55.20861 | 28.91366 | 32874 ft | 432 kts | 188° |
| 2026-05-04 11:51 | 55.14856 | 28.90539 | 32874 ft | 436 kts | 187° |
| 2026-05-04 11:52 | 55.08841 | 28.89733 | 32878 ft | 436 kts | 187° |
| 2026-05-04 11:52 | 55.02792 | 28.88861 | 32773 ft | 438 kts | 187° |
| 2026-05-04 11:52 | 54.99778 | 28.88403 | 32263 ft | 441 kts | 187° |
| 2026-05-04 11:53 | 54.96735 | 28.87936 | 31588 ft | 441 kts | 187° |
| 2026-05-04 11:53 | 54.93646 | 28.87463 | 30903 ft | 441 kts | 187° |
| 2026-05-04 11:53 | 54.90639 | 28.86999 | 30238 ft | 440 kts | 187° |
| 2026-05-04 11:53 | 54.87582 | 28.86495 | 29453 ft | 442 kts | 189° |
| 2026-05-04 11:55 | 54.68733 | 28.70633 | 24400 ft | 429 kts | 215° |
| 2026-05-04 11:55 | 54.66276 | 28.67870 | 23797 ft | 425 kts | 214° |
| 2026-05-04 11:56 | 54.63779 | 28.65097 | 23185 ft | 421 kts | 214° |
| 2026-05-04 11:56 | 54.61348 | 28.62427 | 22596 ft | 417 kts | 214° |
| 2026-05-04 11:56 | 54.58900 | 28.59768 | 21996 ft | 414 kts | 214° |
| 2026-05-04 11:56 | 54.56490 | 28.57167 | 21404 ft | 410 kts | 214° |
| 2026-05-04 11:57 | 54.54112 | 28.54617 | 20812 ft | 407 kts | 214° |
| 2026-05-04 11:57 | 54.51725 | 28.52049 | 20207 ft | 403 kts | 215° |
| 2026-05-04 11:57 | 54.49440 | 28.49341 | 19589 ft | 400 kts | 218° |
| 2026-05-04 11:57 | 54.47226 | 28.46468 | 18982 ft | 397 kts | 220° |
| 2026-05-04 11:58 | 54.45076 | 28.43567 | 18439 ft | 393 kts | 220° |
| 2026-05-04 11:58 | 54.42951 | 28.40665 | 17892 ft | 389 kts | 220° |
| 2026-05-04 11:58 | 54.40873 | 28.37835 | 17336 ft | 385 kts | 220° |
| 2026-05-04 11:58 | 54.38770 | 28.35002 | 16767 ft | 382 kts | 220° |
| 2026-05-04 11:59 | 54.36682 | 28.32217 | 16204 ft | 380 kts | 219° |
| 2026-05-04 11:59 | 54.34613 | 28.29479 | 15642 ft | 377 kts | 219° |
| 2026-05-04 11:59 | 54.32554 | 28.26770 | 15082 ft | 374 kts | 219° |
| 2026-05-04 11:59 | 54.30500 | 28.24078 | 14522 ft | 372 kts | 219° |
| 2026-05-04 12:00 | 54.28451 | 28.21399 | 13961 ft | 369 kts | 219° |
| 2026-05-04 12:00 | 54.26429 | 28.18759 | 13412 ft | 366 kts | 220° |
| 2026-05-04 12:00 | 54.24418 | 28.16134 | 12867 ft | 363 kts | 220° |
| 2026-05-04 12:00 | 54.22443 | 28.13560 | 12319 ft | 360 kts | 220° |
| 2026-05-04 12:01 | 54.20442 | 28.11032 | 11771 ft | 358 kts | 216° |
| 2026-05-04 12:01 | 54.18272 | 28.09012 | 11231 ft | 359 kts | 203° |
| 2026-05-04 12:02 | 54.04324 | 28.14094 | 9038 ft | 332 kts | 166° |
| 2026-05-04 12:03 | 54.02145 | 28.15201 | 8940 ft | 317 kts | 166° |
| 2026-05-04 12:03 | 54.00092 | 28.16253 | 8942 ft | 302 kts | 163° |
| 2026-05-04 12:03 | 53.98235 | 28.17653 | 8914 ft | 291 kts | 150° |
| 2026-05-04 12:03 | 53.96646 | 28.19693 | 8705 ft | 287 kts | 141° |
| 2026-05-04 12:04 | 53.95187 | 28.22017 | 8366 ft | 286 kts | 138° |
| 2026-05-04 12:04 | 53.93757 | 28.24353 | 8034 ft | 285 kts | 139° |
| 2026-05-04 12:04 | 53.92321 | 28.26616 | 7755 ft | 282 kts | 140° |
| 2026-05-04 12:04 | 53.90867 | 28.28837 | 7445 ft | 280 kts | 141° |
| 2026-05-04 12:05 | 53.89420 | 28.31006 | 7174 ft | 277 kts | 141° |
| 2026-05-04 12:05 | 53.88006 | 28.33114 | 7080 ft | 266 kts | 141° |
| 2026-05-04 12:05 | 53.86637 | 28.35153 | 6961 ft | 257 kts | 142° |
| 2026-05-04 12:05 | 53.85320 | 28.37101 | 6714 ft | 254 kts | 142° |
| 2026-05-04 12:06 | 53.83994 | 28.39053 | 6447 ft | 252 kts | 142° |
| 2026-05-04 12:06 | 53.82668 | 28.41007 | 6140 ft | 252 kts | 142° |
| 2026-05-04 12:06 | 53.81347 | 28.42955 | 5885 ft | 250 kts | 142° |
| 2026-05-04 12:06 | 53.80045 | 28.44875 | 5594 ft | 249 kts | 142° |
| 2026-05-04 12:07 | 53.78748 | 28.46789 | 5311 ft | 249 kts | 142° |
| 2026-05-04 12:07 | 53.77453 | 28.48696 | 5033 ft | 247 kts | 142° |
| 2026-05-04 12:07 | 53.76145 | 28.50616 | 4751 ft | 246 kts | 142° |
| 2026-05-04 12:07 | 53.74867 | 28.52490 | 4480 ft | 245 kts | 142° |
| 2026-05-04 12:08 | 53.73592 | 28.54361 | 4198 ft | 244 kts | 142° |
| 2026-05-04 12:08 | 53.72232 | 28.56055 | 4006 ft | 237 kts | 156° |
| 2026-05-04 12:08 | 53.70684 | 28.56723 | 4010 ft | 232 kts | 187° |
| 2026-05-04 12:08 | 53.69170 | 28.55990 | 4019 ft | 226 kts | 212° |
| 2026-05-04 12:09 | 53.67914 | 28.54427 | 4011 ft | 223 kts | 226° |
| 2026-05-04 12:09 | 53.66874 | 28.52494 | 4013 ft | 222 kts | 231° |
| 2026-05-04 12:09 | 53.65895 | 28.50506 | 4013 ft | 223 kts | 231° |
| 2026-05-04 12:09 | 53.64899 | 28.48513 | 4013 ft | 223 kts | 231° |
| 2026-05-04 12:10 | 53.63940 | 28.46487 | 4007 ft | 218 kts | 238° |
| 2026-05-04 12:10 | 53.63405 | 28.44141 | 4006 ft | 218 kts | 267° |
| 2026-05-04 12:10 | 53.63716 | 28.41663 | 4021 ft | 221 kts | 296° |
| 2026-05-04 12:10 | 53.64757 | 28.39763 | 4013 ft | 228 kts | 326° |
| 2026-05-04 12:11 | 53.66159 | 28.38530 | 4015 ft | 229 kts | 327° |
| 2026-05-04 12:11 | 53.67490 | 28.37074 | 4007 ft | 226 kts | 318° |
| 2026-05-04 12:11 | 53.68697 | 28.35399 | 4009 ft | 226 kts | 315° |
| 2026-05-04 12:11 | 53.69881 | 28.33649 | 3994 ft | 223 kts | 315° |
| 2026-05-04 12:12 | 53.71033 | 28.31950 | 3847 ft | 219 kts | 315° |
| 2026-05-04 12:12 | 53.72187 | 28.30265 | 3438 ft | 225 kts | 315° |
| 2026-05-04 12:12 | 53.73374 | 28.28534 | 3045 ft | 227 kts | 315° |
| 2026-05-04 12:12 | 53.74530 | 28.26853 | 2992 ft | 213 kts | 315° |
| 2026-05-04 12:13 | 53.75604 | 28.25287 | 3001 ft | 197 kts | 315° |
| 2026-05-04 12:14 | 53.82099 | 28.15756 | 2157 ft | 152 kts | 314° |
| 2026-05-04 12:15 | 53.82851 | 28.14652 | 1981 ft | 149 kts | 310° |
| 2026-05-04 12:15 | 53.83631 | 28.13507 | 1841 ft | 145 kts | 315° |
| 2026-05-04 12:15 | 53.84420 | 28.12353 | 1593 ft | 153 kts | 309° |
| 2026-05-04 12:15 | 53.85199 | 28.11243 | 1414 ft | 145 kts | 318° |
| 2026-05-04 12:16 | 53.85986 | 28.10103 | 1209 ft | 152 kts | 311° |
| 2026-05-04 12:16 | 53.86750 | 28.08944 | 1128 ft | 140 kts | 312° |
| 2026-05-04 12:16 | 53.87486 | 28.07868 | 825 ft | 144 kts | 310° |
| 2026-05-04 12:16 | 53.88216 | 28.06743 | 704 ft | 140 kts | 315° |
| 2026-05-04 12:17 | 53.88866 | 28.05761 | 689 ft | 105 kts | 317° |
| 2026-05-04 12:17 | 53.89404 | 28.04968 | 689 ft | 99 kts | 314° |
| 2026-05-04 12:17 | 53.89854 | 28.04305 | 666 ft | 74 kts | 318° |
| 2026-05-04 12:17 | 53.90207 | 28.03775 | 646 ft | 62 kts | 320° |
| 2026-05-04 12:18 | 53.90470 | 28.03399 | 642 ft | 29 kts | 306° |
| 2026-05-04 12:18 | 53.90434 | 28.03197 | 644 ft | 16 kts | 239° |
| 2026-05-04 12:18 | 53.90373 | 28.03166 | 647 ft | 7 kts | 155° |
| 2026-05-04 12:18 | 53.90322 | 28.03227 | 647 ft | 11 kts | 139° |
| 2026-05-04 12:19 | 53.90249 | 28.03336 | 647 ft | 16 kts | 140° |
| 2026-05-04 12:19 | 53.90150 | 28.03476 | 646 ft | 20 kts | 140° |
| 2026-05-04 12:19 | 53.90027 | 28.03659 | 645 ft | 25 kts | 138° |
| 2026-05-04 12:19 | 53.89896 | 28.03856 | 651 ft | 23 kts | 139° |
| 2026-05-04 12:20 | 53.89788 | 28.04014 | 659 ft | 19 kts | 140° |
| 2026-05-04 12:20 | 53.89690 | 28.04156 | 666 ft | 17 kts | 138° |
| 2026-05-04 12:20 | 53.89597 | 28.04297 | 669 ft | 18 kts | 139° |
| 2026-05-04 12:20 | 53.89500 | 28.04438 | 674 ft | 17 kts | 138° |
| 2026-05-04 12:21 | 53.89408 | 28.04582 | 678 ft | 18 kts | 137° |
| 2026-05-04 12:21 | 53.89304 | 28.04608 | 677 ft | 18 kts | 215° |
| 2026-05-04 12:21 | 53.89245 | 28.04619 | 676 ft | 7 kts | 153° |
| 2026-05-04 12:21 | 53.89185 | 28.04597 | 674 ft | 11 kts | 221° |
| 2026-05-04 12:22 | 53.89112 | 28.04463 | 669 ft | 19 kts | 228° |
| 2026-05-04 12:22 | 53.89008 | 28.04269 | 661 ft | 25 kts | 227° |
| 2026-05-04 12:22 | 53.88887 | 28.04035 | 657 ft | 19 kts | 229° |
| 2026-05-04 12:22 | 53.88873 | 28.03872 | 654 ft | 15 kts | 297° |
| 2026-05-04 12:23 | 53.88903 | 28.03713 | 652 ft | 13 kts | 240° |
| 2026-05-04 12:23 | 53.88841 | 28.03597 | 651 ft | 12 kts | 227° |
| 2026-05-04 12:23 | 53.88806 | 28.03482 | 651 ft | 9 kts | 282° |
| 2026-05-04 12:23 | 53.88840 | 28.03430 | 651 ft | 3 kts | 345° |
| 2026-05-04 12:24 | 53.88864 | 28.03417 | 651 ft | 2 kts | 341° |
| 2026-05-04 12:24 | 53.88865 | 28.03416 | 651 ft | 0 kts | 341° |